Terminal Aerodrome Forecast
Issued by NWS Tuscon, AZ

Home | Current Version | Previous Version | Text Only | Print | Product List | Glossary On
Versions: 1 2 3 4 5 6 7 8 9 10 11 12 13 14 15 16 17 18
000
FTUS45 KTWC 270500
TAFDUG
TAF
KDUG 270520Z 2706/2806 VRB03KT P6SM SCT070
     FM271800 35006KT P6SM VCSH SCT040 SCT090
     FM280300 36004KT P6SM FEW150=

USA.gov is the U.S. government's official web portal to all federal, state and local government web resources and services.